Airfield :
LOGIN :

Register | Disclaimer

   EN    FR    IT 

 










Legend :    VFR   Marginal VFR   IFR   Intensive IFR   Very Intensive IFR
Visi :
Ceiling :
>= 8 km
>= 3000ft
5 to 8 km
1000 to 3000 ft
1500m to 5 km
500 to 1000 ft
800 to 1500m
200 to 500 ft
< 800m
< 200 ft
Symbols :   Thunderstorms  Fog  Heavy snow  Heavy precipitations  Wind > 20 kt
SIGMETs :     Misc.  Thunderstorms  Icing  Turbulence  Mountain Waves  Volcanic Ashes






- Airport Elevation : 245 ft
- IATA code : BIQ


LFBZ - Biarritz

CURRENT METAR :
  • 241130Z AUTO 04005KT 010V080 CAVOK 11/07 Q1026 NOSIG

EXPIRED METARs :
  • 241100Z AUTO 07005KT 030V110 CAVOK 10/07 Q1026 NOSIG
  • 241030Z AUTO 07004KT 020V110 9000 SCT003 BKN110 BKN130 08/08 Q1026 NOSIG
  • 241000Z AUTO 07003KT 040V130 6000 OVC003 07/07 Q1027 BECMG NSC
  • 240930Z AUTO 09006KT 060V120 1600 1100 R09/1600D R27/1400U BR VV/// 07/07 Q1027 BECMG CAVOK
  • 240900Z AUTO 10004KT 070V150 0650 0550 R09/0900N R27/1100U FG VV/// 06/06 Q1028 BECMG CAVOK

TAF TAF LFBZ
Valid from the 24 at 12:00 until the 25 at 12:00 UTC


241100Z 2412/2512 VRB02KT CAVOK
BECMG 2416/2418 30010KT BKN008
BECMG 2506/2508 24010KT BKN020 OVC060
TEMPO 2509/2512 -RA OVC015



MET'MAP, your aeronautical weather chart ! - Copyright ORBIFLY December 2007 - Disclaimer

ORBIFLY MET'MAP TEAM :

Programming & Development : Alexandra Zaïnal
Concept & original design : Baudouin d'Aumeries
Assistance for programming : Marc-Olivier Méhu
Technical & hardware support : Manuel Goepfert

Contact : metmap@orbifly.com




SOURCES & CREDITS :

   NOAA